Time;durP1;ratioP1;P1;durP2;ratioP2;P2;SDS_P1;SDS_P2;PMS_P1;PMS_P2;Temp;Humidity;BMP_temperature;BMP_pressure;BME280_temperature;BME280_humidity;BME280_pressure;Samples;Min_cycle;Max_cycle;Signal;HPM_P1;HPM_P2
2023/07/27 00:01:43;;;;;;;1.10;1.10;;;;;;;22.97;77.35;95867.34;5042001;28;20045;-62
2023/07/27 00:04:09;;;;;;;1.00;1.00;;;;;;;23.34;73.53;95896.19;5043942;28;20065;-62
2023/07/27 00:06:36;;;;;;;1.00;1.00;;;;;;;23.47;74.63;95896.72;5043633;28;20060;-63
2023/07/27 00:09:03;;;;;;;1.00;1.00;;;;;;;23.17;74.61;95835.69;5043861;28;20068;-62
2023/07/27 00:11:29;;;;;;;1.08;1.08;;;;;;;23.47;71.02;95882.59;5041936;28;20132;-61
2023/07/27 00:13:56;;;;;;;1.00;1.00;;;;;;;23.70;70.79;95890.25;5041783;28;20059;-63
2023/07/27 00:16:23;;;;;;;1.02;1.02;;;;;;;23.78;70.88;95892.22;5042751;28;20533;-61
2023/07/27 00:18:49;;;;;;;1.00;1.00;;;;;;;23.61;72.21;95876.19;5042135;28;20057;-63
2023/07/27 00:21:16;;;;;;;1.00;1.00;;;;;;;23.73;71.70;95889.28;5044091;28;20487;-62
2023/07/27 00:23:43;;;;;;;1.00;1.00;;;;;;;23.61;71.41;95856.41;5045755;28;20045;-62
2023/07/27 00:26:09;;;;;;;1.00;1.00;;;;;;;23.92;69.10;95892.75;5045328;28;20136;-61
2023/07/27 00:28:36;;;;;;;1.05;1.05;;;;;;;23.78;69.62;95897.09;5046967;28;20068;-62
2023/07/27 00:31:03;;;;;;;1.10;1.10;;;;;;;23.84;68.94;95906.47;5045612;28;20057;-62
2023/07/27 00:33:29;;;;;;;0.93;0.93;;;;;;;23.94;70.25;95902.28;5045342;28;20053;-62
2023/07/27 00:35:57;;;;;;;1.10;1.10;;;;;;;24.02;70.71;95903.50;5046307;28;20048;-63
2023/07/27 00:38:24;;;;;;;1.10;1.10;;;;;;;23.97;70.29;95898.53;5045289;28;20530;-61
2023/07/27 00:40:51;;;;;;;1.10;1.10;;;;;;;24.02;68.29;95905.53;5046519;28;20055;-61
2023/07/27 00:43:18;;;;;;;1.20;1.20;;;;;;;23.98;69.01;95900.06;5045540;28;20053;-62
2023/07/27 00:45:50;;;;;;;1.10;1.10;;;;;;;23.89;67.25;95900.13;5046334;28;20087;-62
2023/07/27 00:48:17;;;;;;;1.10;1.10;;;;;;;23.89;66.93;95912.25;5046174;28;20060;-61
2023/07/27 00:50:46;;;;;;;1.10;1.10;;;;;;;23.89;66.68;95905.78;5044872;28;20396;-62
2023/07/27 00:53:14;;;;;;;1.10;1.10;;;;;;;23.77;68.29;95906.84;5046861;28;20423;-62
2023/07/27 00:55:41;;;;;;;1.02;1.02;;;;;;;23.55;68.11;95869.66;5046595;28;20141;-62
2023/07/27 00:58:08;;;;;;;1.00;1.00;;;;;;;23.71;68.66;95914.44;5043447;28;20144;-62
2023/07/27 01:00:36;;;;;;;1.15;1.15;;;;;;;23.44;69.92;95866.59;5027045;28;20092;-63
2023/07/27 01:03:03;;;;;;;1.00;1.00;;;;;;;23.26;68.81;95861.06;5026176;28;20606;-62
2023/07/27 01:05:31;;;;;;;1.00;1.00;;;;;;;23.56;67.03;95913.63;5058263;28;20053;-62
2023/07/27 01:07:57;;;;;;;1.00;1.00;;;;;;;23.60;66.46;95908.56;5058269;28;20087;-62
2023/07/27 01:10:47;;;;;;;1.00;1.00;;;;;;;23.58;67.85;95896.97;5025917;28;20068;-62
2023/07/27 01:13:32;;;;;;;1.00;1.00;;;;;;;23.61;67.64;95898.81;5026644;28;20053;-61
2023/07/27 01:16:08;;;;;;;1.00;1.00;;;;;;;23.59;68.26;95913.44;5025774;28;20057;-61
2023/07/27 01:19:09;;;;;;;1.00;1.00;;;;;;;23.61;68.24;95904.47;5026482;28;20057;-62
2023/07/27 01:21:42;;;;;;;1.10;1.10;;;;;;;23.58;67.70;95908.25;5025265;28;20045;-67
2023/07/27 01:25:01;;;;;;;1.02;1.02;;;;;;;23.58;66.47;95913.91;5056040;28;20209;-62
2023/07/27 01:27:43;;;;;;;1.00;1.00;;;;;;;23.42;67.07;95915.16;5026275;28;20115;-62
2023/07/27 01:30:15;;;;;;;0.90;0.90;;;;;;;23.35;66.71;95926.00;5025853;28;20075;-61
2023/07/27 01:32:44;;;;;;;1.05;1.05;;;;;;;23.40;66.13;95922.53;5058118;28;20049;-64
2023/07/27 01:35:16;;;;;;;1.10;1.10;;;;;;;23.10;66.56;95892.53;5045782;28;20056;-64
2023/07/27 01:37:44;;;;;;;0.90;0.90;;;;;;;23.31;65.84;95925.41;5045843;28;20055;-62
2023/07/27 01:40:13;;;;;;;1.15;1.15;;;;;;;23.01;66.27;95912.38;5030032;28;20067;-62
2023/07/27 01:42:42;;;;;;;1.00;1.00;;;;;;;23.11;65.50;95916.72;5046034;28;20048;-64
2023/07/27 01:45:11;;;;;;;0.90;0.90;;;;;;;23.21;64.21;95943.66;5045515;28;20049;-61
2023/07/27 01:47:41;;;;;;;1.00;1.00;;;;;;;23.18;64.06;95922.00;5044668;28;20064;-63
2023/07/27 01:50:09;;;;;;;1.10;1.10;;;;;;;23.29;63.93;95934.38;5045019;28;20492;-62
2023/07/27 01:52:37;;;;;;;1.00;1.00;;;;;;;23.26;65.00;95940.19;5043934;28;20060;-65
2023/07/27 01:55:06;;;;;;;1.10;1.10;;;;;;;22.84;64.20;95874.50;5045276;28;20053;-64
2023/07/27 01:57:34;;;;;;;1.10;1.10;;;;;;;23.23;63.46;95953.22;5045671;28;20577;-63
2023/07/27 02:00:03;;;;;;;0.90;0.90;;;;;;;22.94;64.14;95907.06;5045046;28;20447;-62
2023/07/27 02:02:30;;;;;;;1.00;1.00;;;;;;;23.00;63.23;95916.47;5045287;28;20525;-63
2023/07/27 02:05:00;;;;;;;1.08;1.08;;;;;;;23.14;63.00;95915.78;5043692;28;20059;-63
2023/07/27 02:07:27;;;;;;;1.00;1.00;;;;;;;23.31;63.41;95948.03;5045268;28;20049;-61
2023/07/27 02:09:53;;;;;;;1.10;1.10;;;;;;;23.29;64.75;95956.19;5045017;28;20056;-63
2023/07/27 02:12:29;;;;;;;1.10;1.10;;;;;;;23.27;64.08;95955.88;5043440;28;20368;-62
2023/07/27 02:15:02;;;;;;;0.90;0.90;;;;;;;23.12;64.32;95940.88;5044844;28;20059;-61
2023/07/27 02:17:39;;;;;;;1.10;1.10;;;;;;;23.07;64.26;95947.19;5044945;28;20057;-64
2023/07/27 02:20:13;;;;;;;0.90;0.90;;;;;;;23.14;64.68;95966.63;5044858;28;20428;-62
2023/07/27 02:22:45;;;;;;;1.00;1.00;;;;;;;22.97;64.81;95969.03;5044912;28;20067;-62
2023/07/27 02:25:12;;;;;;;1.00;1.00;;;;;;;22.20;64.66;95866.28;5044817;28;20084;-62
2023/07/27 02:27:38;;;;;;;0.90;0.90;;;;;;;22.62;65.48;95965.09;5044997;28;20048;-63
2023/07/27 02:30:06;;;;;;;0.90;0.90;;;;;;;22.62;65.27;95976.38;5044815;28;20103;-61
2023/07/27 02:32:32;;;;;;;1.00;1.00;;;;;;;22.11;64.95;95911.41;5045267;28;20164;-62
2023/07/27 02:34:59;;;;;;;1.10;1.10;;;;;;;22.68;65.79;95985.00;5045116;28;20696;-62
2023/07/27 02:37:26;;;;;;;0.90;0.90;;;;;;;22.16;65.65;95930.53;5044107;28;20052;-62
2023/07/27 02:39:52;;;;;;;1.00;1.00;;;;;;;22.22;64.93;95947.63;5044965;28;20061;-62
2023/07/27 02:42:19;;;;;;;1.05;1.05;;;;;;;22.39;64.95;95975.03;5044173;28;20055;-63
2023/07/27 02:44:46;;;;;;;1.05;1.05;;;;;;;22.57;65.29;95984.72;5042504;28;20053;-62
2023/07/27 02:47:12;;;;;;;0.90;0.90;;;;;;;22.65;65.71;95988.78;5043956;28;20508;-62
2023/07/27 02:49:39;;;;;;;0.90;0.90;;;;;;;22.65;65.93;95985.97;5044376;28;20923;-62
2023/07/27 02:52:06;;;;;;;1.00;1.00;;;;;;;22.41;65.70;95952.72;5042978;28;20053;-63
2023/07/27 02:54:32;;;;;;;0.93;0.93;;;;;;;22.49;65.26;95956.78;5042820;28;20055;-63
2023/07/27 02:56:59;;;;;;;0.90;0.90;;;;;;;22.48;65.01;95987.56;5042635;28;20057;-61
2023/07/27 02:59:26;;;;;;;0.90;0.90;;;;;;;22.48;65.63;95994.75;5042774;28;20124;-62
2023/07/27 03:01:52;;;;;;;1.00;1.00;;;;;;;22.49;65.40;96007.59;5044350;28;20844;-62
2023/07/27 03:04:19;;;;;;;1.00;1.00;;;;;;;22.56;65.50;96002.94;5035335;28;20049;-63
2023/07/27 03:06:46;;;;;;;0.90;0.90;;;;;;;22.57;65.35;96007.31;5043999;28;20080;-64
2023/07/27 03:09:12;;;;;;;1.00;1.00;;;;;;;22.48;65.58;95998.84;5043682;28;20056;-62
2023/07/27 03:11:39;;;;;;;1.00;1.00;;;;;;;22.38;65.40;96023.47;5043870;28;20143;-64
2023/07/27 03:14:06;;;;;;;0.90;0.90;;;;;;;22.48;65.20;96010.91;5044695;28;20057;-62
2023/07/27 03:16:32;;;;;;;0.90;0.90;;;;;;;22.48;64.80;96007.31;5043250;28;20071;-63
2023/07/27 03:19:00;;;;;;;1.02;1.02;;;;;;;22.33;65.38;96016.44;5044237;28;20511;-62
2023/07/27 03:21:26;;;;;;;0.90;0.90;;;;;;;22.37;65.64;96028.31;5044123;28;20064;-65
2023/07/27 03:23:53;;;;;;;0.90;0.90;;;;;;;22.45;65.47;96034.44;5044144;28;20049;-63
2023/07/27 03:26:20;;;;;;;0.98;0.98;;;;;;;22.21;65.08;95991.97;5042396;28;20072;-63
2023/07/27 03:28:46;;;;;;;1.00;1.00;;;;;;;22.42;65.70;96029.72;5042454;28;20128;-64
2023/07/27 03:31:22;;;;;;;0.93;0.93;;;;;;;22.43;65.68;96020.78;5042515;28;20519;-62
2023/07/27 03:33:49;;;;;;;1.00;1.00;;;;;;;22.63;65.77;96044.94;5043925;28;20057;-64
2023/07/27 03:36:17;;;;;;;1.00;1.00;;;;;;;22.67;66.03;96051.22;5043189;28;20080;-65
2023/07/27 03:38:44;;;;;;;1.00;1.00;;;;;;;22.63;65.62;96057.03;5043963;28;20091;-63
2023/07/27 03:41:12;;;;;;;1.00;1.00;;;;;;;22.54;65.34;96036.50;5043531;28;20049;-63
2023/07/27 03:43:39;;;;;;;1.00;1.00;;;;;;;22.73;65.01;96069.09;5042452;28;20506;-64
2023/07/27 03:46:06;;;;;;;1.00;1.00;;;;;;;22.79;64.53;96064.38;5042180;28;20057;-62
2023/07/27 03:48:33;;;;;;;1.08;1.08;;;;;;;22.71;64.94;96066.75;5041652;28;20053;-63
2023/07/27 03:51:00;;;;;;;1.02;1.02;;;;;;;22.85;64.40;96079.41;5041728;28;20542;-64
2023/07/27 03:53:28;;;;;;;1.02;1.02;;;;;;;22.48;64.12;96024.25;5022403;28;20049;-62
2023/07/27 03:55:55;;;;;;;1.15;1.15;;;;;;;22.78;64.79;96076.94;5023722;28;20064;-62
2023/07/27 03:58:22;;;;;;;1.00;1.00;;;;;;;22.86;64.55;96078.94;5027970;28;20136;-63
2023/07/27 04:00:49;;;;;;;1.00;1.00;;;;;;;22.88;64.25;96062.28;5027407;28;20071;-62
2023/07/27 04:03:15;;;;;;;1.10;1.10;;;;;;;22.94;62.91;96060.38;5027680;28;20065;-63
2023/07/27 04:05:42;;;;;;;1.00;1.00;;;;;;;22.95;62.40;96058.34;5026863;28;20056;-64
2023/07/27 04:08:10;;;;;;;1.00;1.00;;;;;;;23.04;62.13;96086.56;5027266;28;20477;-63
2023/07/27 04:10:40;;;;;;;0.90;0.90;;;;;;;22.97;62.29;96070.75;5027403;28;20045;-63
2023/07/27 04:13:07;;;;;;;1.08;1.08;;;;;;;22.92;61.57;96033.91;5027667;28;20455;-62
2023/07/27 04:15:34;;;;;;;1.10;1.10;;;;;;;22.95;61.79;96055.53;5027109;28;20050;-62
2023/07/27 04:18:01;;;;;;;1.10;1.10;;;;;;;23.14;62.09;96107.91;5026914;28;20496;-64
2023/07/27 04:20:27;;;;;;;1.02;1.02;;;;;;;23.19;61.59;96104.44;5027041;28;20077;-62
2023/07/27 04:22:54;;;;;;;1.00;1.00;;;;;;;23.40;62.01;96109.09;5059058;28;20045;-62
2023/07/27 04:25:21;;;;;;;1.00;1.00;;;;;;;23.41;62.08;96121.97;5041995;28;20595;-62
2023/07/27 04:27:50;;;;;;;1.10;1.10;;;;;;;23.56;61.02;96112.31;5027108;28;20053;-62
2023/07/27 04:30:17;;;;;;;1.10;1.10;;;;;;;23.49;60.70;96111.91;5041668;28;20507;-62
2023/07/27 04:32:44;;;;;;;1.20;1.20;;;;;;;23.47;62.09;96112.34;5042096;28;20041;-63
2023/07/27 04:35:11;;;;;;;1.10;1.10;;;;;;;22.54;63.40;96081.66;5043282;28;20139;-62
2023/07/27 04:37:37;;;;;;;0.90;0.90;;;;;;;22.97;64.07;96115.16;5046571;28;20525;-63
2023/07/27 04:40:05;;;;;;;1.00;1.00;;;;;;;23.23;62.69;96105.03;5046784;28;20547;-63
2023/07/27 04:42:32;;;;;;;1.10;1.10;;;;;;;23.49;61.36;96111.91;5046692;28;20062;-62
2023/07/27 04:44:58;;;;;;;1.00;1.00;;;;;;;23.37;57.97;96110.03;5046525;28;20658;-63
2023/07/27 04:47:26;;;;;;;1.00;1.00;;;;;;;23.57;57.14;96124.41;5044942;28;20165;-63
2023/07/27 04:49:53;;;;;;;1.02;1.02;;;;;;;23.52;56.57;96122.25;5041314;28;20071;-63
2023/07/27 04:52:20;;;;;;;1.00;1.00;;;;;;;23.38;56.95;96108.78;5034828;28;20622;-63
2023/07/27 04:54:46;;;;;;;1.00;1.00;;;;;;;23.89;57.31;96130.06;5044950;28;20446;-63
2023/07/27 04:57:13;;;;;;;1.10;1.10;;;;;;;24.15;57.56;96136.09;5046410;28;20053;-63
2023/07/27 04:59:40;;;;;;;1.10;1.10;;;;;;;24.30;56.56;96122.75;5046236;28;20045;-63
2023/07/27 05:02:06;;;;;;;1.10;1.10;;;;;;;24.42;54.90;96115.28;5046332;28;20115;-63
2023/07/27 05:04:33;;;;;;;1.30;1.30;;;;;;;24.29;55.84;96112.72;5046444;28;20122;-63
2023/07/27 05:07:00;;;;;;;1.20;1.20;;;;;;;24.44;55.15;96129.75;5045772;28;20053;-64
2023/07/27 05:09:26;;;;;;;1.20;1.20;;;;;;;24.35;54.32;96122.09;5044710;28;20044;-62
2023/07/27 05:11:53;;;;;;;1.05;1.05;;;;;;;24.22;54.82;96130.03;5045708;28;20606;-63
2023/07/27 05:14:20;;;;;;;1.10;1.10;;;;;;;24.12;54.81;96131.38;5045897;28;20049;-63
2023/07/27 05:16:46;;;;;;;1.17;1.17;;;;;;;24.05;55.25;96131.72;5045589;28;20055;-63
2023/07/27 05:19:13;;;;;;;1.10;1.10;;;;;;;24.25;54.19;96123.41;5045890;28;20064;-62
2023/07/27 05:21:40;;;;;;;1.17;1.17;;;;;;;24.34;53.93;96114.88;5045324;28;20395;-63
2023/07/27 05:24:06;;;;;;;1.20;1.20;;;;;;;24.39;55.80;96117.00;5045707;28;20136;-64
2023/07/27 05:26:33;;;;;;;1.13;1.13;;;;;;;23.94;55.24;96080.53;5045371;28;20045;-63
2023/07/27 05:29:00;;;;;;;1.20;1.20;;;;;;;24.13;54.05;96086.88;5044296;28;20598;-62
2023/07/27 05:31:27;;;;;;;1.30;1.30;;;;;;;24.44;52.95;96116.34;5044285;28;20053;-62
2023/07/27 05:33:54;;;;;;;1.10;1.10;;;;;;;24.42;51.46;96121.72;5039185;28;20052;-65
2023/07/27 05:36:21;;;;;;;1.10;1.10;;;;;;;24.15;50.71;96112.66;5025475;28;20060;-65
2023/07/27 05:38:47;;;;;;;1.00;1.00;;;;;;;24.13;55.41;96121.63;5025870;28;20068;-62
2023/07/27 05:41:14;;;;;;;1.00;1.00;;;;;;;24.00;56.63;96118.25;5024239;28;20128;-65
2023/07/27 05:43:41;;;;;;;1.20;1.20;;;;;;;24.41;56.01;96131.47;5027623;28;20212;-62
2023/07/27 05:46:07;;;;;;;1.20;1.20;;;;;;;24.51;55.29;96101.84;5040444;28;20060;-69
2023/07/27 05:48:34;;;;;;;1.10;1.10;;;;;;;24.55;55.16;96119.41;5040943;28;20052;-61
2023/07/27 05:51:01;;;;;;;1.20;1.20;;;;;;;24.86;54.17;96121.84;5044425;28;20072;-62
2023/07/27 05:53:28;;;;;;;1.30;1.30;;;;;;;25.18;51.49;96101.06;5043437;28;20048;-64
2023/07/27 05:55:55;;;;;;;1.20;1.20;;;;;;;25.04;48.50;96062.94;5042612;28;20048;-67
2023/07/27 05:58:21;;;;;;;1.30;1.30;;;;;;;25.18;46.20;96116.00;5042535;28;20432;-64
2023/07/27 06:00:59;;;;;;;1.20;1.20;;;;;;;25.74;47.50;96150.97;5044606;28;20503;-61
2023/07/27 06:03:27;;;;;;;1.40;1.40;;;;;;;25.61;45.10;96127.84;5044679;28;20052;-66
2023/07/27 06:05:54;;;;;;;1.15;1.15;;;;;;;25.90;44.77;96153.31;5043944;28;20053;-66
2023/07/27 06:08:21;;;;;;;1.35;1.35;;;;;;;26.05;45.95;96159.78;5044279;28;20451;-66
2023/07/27 06:10:48;;;;;;;1.40;1.40;;;;;;;26.36;42.94;96159.94;5042663;28;20496;-61
2023/07/27 06:13:15;;;;;;;1.42;1.42;;;;;;;26.44;41.53;96152.56;5044916;28;20056;-62
2023/07/27 06:15:48;;;;;;;1.50;1.50;;;;;;;26.41;42.39;96162.09;5044085;28;20052;-62
2023/07/27 06:18:14;;;;;;;1.38;1.38;;;;;;;26.55;41.68;96130.00;5042917;28;20084;-62
2023/07/27 06:20:41;;;;;;;1.60;1.60;;;;;;;27.01;41.94;96150.72;5043060;28;20053;-66
2023/07/27 06:23:08;;;;;;;1.55;1.55;;;;;;;26.85;40.79;96116.41;5044143;28;20056;-66
2023/07/27 06:25:34;;;;;;;1.45;1.45;;;;;;;27.29;40.05;96154.66;5042359;28;20053;-68
2023/07/27 06:28:01;;;;;;;1.60;1.60;;;;;;;26.98;37.97;96143.19;5044163;28;20049;-63
2023/07/27 06:30:28;;;;;;;1.45;1.45;;;;;;;27.09;37.93;96134.78;5040784;28;20044;-69
2023/07/27 06:32:55;;;;;;;1.50;1.50;;;;;;;27.21;38.06;96142.13;5035480;28;20037;-64
2023/07/27 06:35:21;;;;;;;1.60;1.60;;;;;;;27.29;37.97;96146.13;5040329;28;20507;-63
2023/07/27 06:37:48;;;;;;;1.50;1.50;;;;;;;27.42;36.56;96140.81;5042461;28;20049;-61
2023/07/27 06:40:15;;;;;;;1.60;1.60;;;;;;;27.10;38.24;96133.50;5041358;28;20212;-61
2023/07/27 06:42:42;;;;;;;1.55;1.55;;;;;;;27.09;37.92;96038.09;5042041;28;20041;-71
2023/07/27 06:45:09;;;;;;;1.63;1.63;;;;;;;27.53;39.29;96140.94;5043432;28;20500;-63
2023/07/27 06:47:35;;;;;;;1.60;1.60;;;;;;;27.51;39.98;96134.94;5041959;28;20065;-63
2023/07/27 06:50:03;;;;;;;1.60;1.60;;;;;;;27.71;38.93;96123.47;5041057;28;20053;-62
2023/07/27 06:52:30;;;;;;;1.63;1.63;;;;;;;27.68;38.08;96135.88;5038797;28;20075;-66
2023/07/27 06:54:56;;;;;;;1.60;1.60;;;;;;;27.80;37.89;96208.69;5039468;28;20538;-60
2023/07/27 06:57:27;;;;;;;1.70;1.70;;;;;;;27.42;38.45;96123.75;5041869;28;20059;-62
2023/07/27 06:59:54;;;;;;;1.65;1.65;;;;;;;27.37;39.22;96133.00;5039284;28;20127;-63
2023/07/27 07:02:20;;;;;;;1.52;1.52;;;;;;;27.10;36.26;96139.19;5043658;28;20045;-61
2023/07/27 07:04:47;;;;;;;1.42;1.42;;;;;;;27.04;35.30;96092.84;5043062;28;20130;-63
2023/07/27 07:07:14;;;;;;;1.70;1.70;;;;;;;26.98;36.63;96108.28;5027566;28;20107;-67
2023/07/27 07:09:41;;;;;;;1.48;1.48;;;;;;;26.83;36.44;96099.84;5021861;28;20132;-63
2023/07/27 07:12:08;;;;;;;1.70;1.70;;;;;;;27.15;36.26;96121.41;5022558;28;20049;-62
2023/07/27 07:14:34;;;;;;;1.40;1.40;;;;;;;27.01;35.38;96051.22;5034395;28;20087;-64
2023/07/27 07:17:01;;;;;;;1.50;1.50;;;;;;;27.06;35.75;96022.06;5041754;28;20106;-63
2023/07/27 07:19:28;;;;;;;1.70;1.70;;;;;;;27.86;35.46;96106.25;5037147;28;20046;-64
2023/07/27 07:21:55;;;;;;;1.63;1.63;;;;;;;27.09;35.75;96008.88;5037108;28;20139;-61
2023/07/27 07:24:22;;;;;;;1.50;1.50;;;;;;;27.65;35.83;96125.50;5039811;28;20304;-63
2023/07/27 07:26:48;;;;;;;1.48;1.48;;;;;;;27.48;35.54;96126.63;5043293;28;20075;-61
2023/07/27 07:29:15;;;;;;;1.60;1.60;;;;;;;26.86;36.50;96101.69;5070957;28;20044;-65
2023/07/27 07:31:42;;;;;;;1.60;1.60;;;;;;;26.67;36.98;96108.97;5040794;28;20049;-65
2023/07/27 07:34:09;;;;;;;1.50;1.50;;;;;;;26.55;37.01;96139.31;5036803;28;20056;-67
2023/07/27 07:36:35;;;;;;;1.60;1.60;;;;;;;26.30;37.12;96102.31;5040731;28;20470;-63
2023/07/27 07:39:04;;;;;;;1.45;1.45;;;;;;;26.64;36.03;96121.34;5041166;28;20444;-62
2023/07/27 07:41:31;;;;;;;1.35;1.35;;;;;;;26.91;34.17;96120.88;5037327;28;20061;-64
2023/07/27 07:43:58;;;;;;;1.42;1.42;;;;;;;26.65;30.81;96088.81;5037608;28;20033;-62
2023/07/27 07:46:24;;;;;;;1.40;1.40;;;;;;;27.24;32.87;96104.16;5040844;28;20044;-63
2023/07/27 07:48:51;;;;;;;1.40;1.40;;;;;;;27.28;35.79;96110.44;5040117;28;20087;-62
2023/07/27 07:51:17;;;;;;;1.48;1.48;;;;;;;26.98;35.42;96117.59;5042399;28;20052;-60
2023/07/27 07:53:44;;;;;;;1.60;1.60;;;;;;;26.58;33.58;96032.41;5040673;28;20052;-60
2023/07/27 07:56:16;;;;;;;1.45;1.45;;;;;;;27.28;31.45;96118.97;5041434;28;20049;-61
2023/07/27 07:58:44;;;;;;;1.63;1.63;;;;;;;27.23;31.19;96050.63;5034918;28;20055;-66
2023/07/27 08:01:11;;;;;;;1.60;1.60;;;;;;;27.59;33.69;96098.28;5038086;28;20503;-61
2023/07/27 08:03:38;;;;;;;1.63;1.63;;;;;;;27.33;31.53;96080.47;5030604;28;20059;-62
2023/07/27 08:06:07;;;;;;;1.70;1.70;;;;;;;27.50;30.12;96081.41;5037631;28;20044;-63
2023/07/27 08:08:35;;;;;;;1.58;1.58;;;;;;;27.90;29.70;96110.44;5036427;28;20045;-59
2023/07/27 08:11:02;;;;;;;1.63;1.63;;;;;;;27.76;29.25;96108.50;5042957;28;20169;-60
2023/07/27 08:13:32;;;;;;;1.70;1.70;;;;;;;28.10;29.11;96121.72;5040366;28;20107;-65
2023/07/27 08:15:59;;;;;;;1.80;1.80;;;;;;;27.93;29.53;96040.31;5042979;28;20053;-67
2023/07/27 08:18:28;;;;;;;1.70;1.70;;;;;;;28.48;29.13;96116.75;5040472;28;20137;-65
2023/07/27 08:20:58;;;;;;;1.95;1.95;;;;;;;28.76;28.97;96160.41;5039758;28;20056;-67
2023/07/27 08:23:25;;;;;;;1.80;1.80;;;;;;;28.77;28.65;96173.38;5041510;28;20284;-67
2023/07/27 08:25:53;;;;;;;1.85;1.85;;;;;;;27.01;27.84;95928.97;5040972;28;20056;-67
2023/07/27 08:28:20;;;;;;;1.90;1.90;;;;;;;28.53;28.32;96181.56;5041655;28;20059;-60
2023/07/27 08:30:48;;;;;;;1.52;1.52;;;;;;;28.09;28.46;96160.00;5042671;28;20111;-67
2023/07/27 08:33:15;;;;;;;1.55;1.55;;;;;;;28.57;28.50;96176.38;5043544;28;20096;-66
2023/07/27 08:35:42;;;;;;;1.80;1.80;;;;;;;28.00;27.90;96082.53;5042297;28;20060;-66
2023/07/27 08:38:09;;;;;;;1.70;1.70;;;;;;;28.58;29.16;96177.97;5043009;28;20056;-61
2023/07/27 08:40:36;;;;;;;1.85;1.85;;;;;;;28.70;28.71;96179.56;5041080;28;20887;-60
2023/07/27 08:43:04;;;;;;;1.63;1.63;;;;;;;28.61;28.35;96171.25;5044818;28;20529;-68
2023/07/27 08:45:31;;;;;;;1.80;1.80;;;;;;;28.32;28.78;96171.56;5045145;28;20056;-65
2023/07/27 08:47:59;;;;;;;1.77;1.77;;;;;;;28.15;29.36;96186.47;5044823;28;20119;-60
2023/07/27 08:50:26;;;;;;;1.65;1.65;;;;;;;27.84;29.68;96160.03;5046143;28;20388;-69
2023/07/27 08:52:53;;;;;;;1.63;1.63;;;;;;;27.34;30.82;96153.94;5047125;28;20127;-60
2023/07/27 08:55:19;;;;;;;1.45;1.45;;;;;;;27.44;31.50;96183.75;5044300;28;20048;-63
2023/07/27 08:57:46;;;;;;;1.70;1.70;;;;;;;27.73;31.16;96189.22;5046721;28;20255;-60
2023/07/27 09:00:14;;;;;;;1.70;1.70;;;;;;;27.63;30.95;96179.28;5044798;28;20049;-60
2023/07/27 09:02:41;;;;;;;1.80;1.80;;;;;;;27.55;30.86;96177.41;5044974;28;20052;-68
2023/07/27 09:05:12;;;;;;;1.70;1.70;;;;;;;27.69;31.08;96179.34;5046021;28;20504;-62
2023/07/27 09:07:39;;;;;;;1.60;1.60;;;;;;;27.73;31.16;96160.75;5046289;28;20048;-59
2023/07/27 09:10:10;;;;;;;1.70;1.70;;;;;;;27.77;30.13;96203.22;5045444;28;20421;-67
2023/07/27 09:12:37;;;;;;;1.50;1.50;;;;;;;27.59;30.55;96175.91;5046349;28;20181;-68
2023/07/27 09:15:15;;;;;;;1.40;1.40;;;;;;;27.51;30.44;96225.22;5044299;28;20053;-59
2023/07/27 09:17:42;;;;;;;1.60;1.60;;;;;;;26.93;30.83;96228.41;5077641;28;20063;-59
2023/07/27 09:20:12;;;;;;;1.50;1.50;;;;;;;26.35;31.89;96223.72;5045516;28;20049;-60
2023/07/27 09:22:39;;;;;;;1.50;1.50;;;;;;;25.81;31.56;96235.72;5045510;28;20045;-69
2023/07/27 09:25:06;;;;;;;1.30;1.30;;;;;;;25.51;32.27;96245.50;5045097;28;20052;-61
2023/07/27 09:27:43;;;;;;;1.25;1.25;;;;;;;25.31;32.66;96261.09;5044159;28;20420;-68
2023/07/27 09:30:12;;;;;;;1.20;1.20;;;;;;;24.83;33.06;96248.25;5045152;28;20060;-60
2023/07/27 09:32:38;;;;;;;1.10;1.10;;;;;;;24.55;33.84;96261.00;5045893;28;20049;-60
2023/07/27 09:35:06;;;;;;;1.00;1.00;;;;;;;24.31;34.89;96267.94;5045074;28;20127;-62
2023/07/27 09:37:33;;;;;;;1.10;1.10;;;;;;;24.32;36.05;96301.41;5045518;28;20080;-60
2023/07/27 09:40:12;;;;;;;1.08;1.08;;;;;;;23.50;35.96;96226.53;5045763;28;20092;-60
2023/07/27 09:42:44;;;;;;;1.10;1.10;;;;;;;23.64;36.19;96283.22;5046012;28;20048;-68
2023/07/27 09:45:14;;;;;;;1.10;1.10;;;;;;;23.65;37.35;96351.88;5044123;28;20534;-69
2023/07/27 09:47:41;;;;;;;1.08;1.08;;;;;;;23.27;37.76;96337.44;5045119;28;20065;-62
2023/07/27 09:50:09;;;;;;;1.00;1.00;;;;;;;22.66;39.13;96238.81;5044501;28;20126;-70
2023/07/27 09:52:39;;;;;;;1.10;1.10;;;;;;;22.44;39.19;96152.22;5042425;28;20127;-59
2023/07/27 09:55:06;;;;;;;1.00;1.00;;;;;;;23.08;43.26;96257.50;5041095;28;20158;-59
2023/07/27 09:57:33;;;;;;;1.10;1.10;;;;;;;22.97;43.63;96271.31;5044236;28;20045;-59
2023/07/27 10:00:05;;;;;;;1.00;1.00;;;;;;;22.55;43.27;96201.78;5042224;28;20064;-58
2023/07/27 10:02:33;;;;;;;1.00;1.00;;;;;;;22.22;41.95;96196.69;5043773;28;20044;-59
2023/07/27 10:05:03;;;;;;;1.05;1.05;;;;;;;22.23;41.76;96184.16;5042140;28;20048;-69
2023/07/27 10:07:30;;;;;;;0.90;0.90;;;;;;;22.86;41.70;96273.03;5043860;28;20064;-68
2023/07/27 10:10:34;;;;;;;1.10;1.10;;;;;;;22.78;41.69;96249.19;5042405;28;20049;-67
2023/07/27 10:13:27;;;;;;;1.00;1.00;;;;;;;23.52;41.08;96286.25;5041190;28;20098;-68
2023/07/27 10:15:55;;;;;;;1.25;1.25;;;;;;;24.03;40.46;96334.41;5040446;28;20055;-67
2023/07/27 10:18:25;;;;;;;1.10;1.10;;;;;;;24.53;39.47;96328.66;5042454;28;20052;-61
2023/07/27 10:21:13;;;;;;;1.00;1.00;;;;;;;25.10;36.13;96406.78;5043665;28;20163;-61
2023/07/27 10:23:52;;;;;;;1.33;1.33;;;;;;;25.13;35.62;96289.59;5042347;28;20052;-58
2023/07/27 10:26:19;;;;;;;1.23;1.23;;;;;;;25.09;35.75;96294.69;5043014;28;20252;-60
2023/07/27 10:28:48;;;;;;;1.33;1.33;;;;;;;25.44;35.57;96308.28;5043874;28;20044;-60
2023/07/27 10:31:26;;;;;;;1.27;1.27;;;;;;;25.34;34.82;96270.69;5042933;28;20503;-61
2023/07/27 10:34:12;;;;;;;1.40;1.40;;;;;;;25.61;34.50;96295.97;5042167;28;20064;-60
2023/07/27 10:37:00;;;;;;;1.20;1.20;;;;;;;25.37;35.71;96268.97;5039757;28;20143;-59
2023/07/27 10:39:29;;;;;;;1.10;1.10;;;;;;;25.96;35.99;96247.84;5039725;28;20469;-68
2023/07/27 10:42:08;;;;;;;1.38;1.38;;;;;;;26.34;35.46;96193.75;5042940;28;20503;-59
2023/07/27 10:44:51;;;;;;;1.50;1.50;;;;;;;26.45;34.70;96239.34;5030748;28;20049;-62
2023/07/27 10:47:26;;;;;;;1.40;1.40;;;;;;;26.23;34.46;96256.84;5039103;28;20056;-61
2023/07/27 10:49:54;;;;;;;1.42;1.42;;;;;;;25.98;34.47;96268.00;5042702;28;20053;-59
2023/07/27 10:52:25;;;;;;;1.35;1.35;;;;;;;25.81;35.25;96286.81;5041974;28;20517;-59
2023/07/27 10:54:54;;;;;;;1.30;1.30;;;;;;;25.82;34.81;96294.03;5043463;28;20053;-69
2023/07/27 10:57:21;;;;;;;1.30;1.30;;;;;;;25.97;34.70;96277.81;5024124;28;20049;-68
2023/07/27 10:59:49;;;;;;;1.33;1.33;;;;;;;25.64;35.30;96282.88;5023782;28;20516;-58
2023/07/27 11:02:28;;;;;;;1.50;1.50;;;;;;;25.67;35.21;96281.91;5023574;28;20535;-58
2023/07/27 11:04:56;;;;;;;1.25;1.25;;;;;;;25.57;34.49;96203.84;5023331;28;20523;-68
2023/07/27 11:07:46;;;;;;;1.50;1.50;;;;;;;25.98;34.66;96262.31;5022180;28;20504;-60
2023/07/27 11:10:18;;;;;;;1.30;1.30;;;;;;;26.68;33.27;96270.44;5022585;28;20404;-68
2023/07/27 11:12:50;;;;;;;1.30;1.30;;;;;;;26.15;32.51;96158.34;5022329;28;20061;-69
2023/07/27 11:15:23;;;;;;;1.40;1.40;;;;;;;27.44;32.91;96266.28;5055000;28;20054;-58
2023/07/27 11:17:55;;;;;;;1.58;1.58;;;;;;;28.02;32.57;96250.84;5023002;28;20053;-60
2023/07/27 11:20:28;;;;;;;1.50;1.50;;;;;;;28.17;31.75;96260.81;5021731;28;20065;-60
2023/07/27 11:22:57;;;;;;;1.40;1.40;;;;;;;25.68;31.50;95996.91;5022306;28;20065;-61
2023/07/27 11:25:24;;;;;;;1.60;1.60;;;;;;;27.26;32.14;96229.63;5022166;28;20145;-60
2023/07/27 11:27:52;;;;;;;1.52;1.52;;;;;;;26.80;32.76;96245.03;5023310;28;20071;-68
2023/07/27 11:30:21;;;;;;;1.20;1.20;;;;;;;26.65;33.33;96225.22;5023164;28;20113;-59
2023/07/27 11:33:00;;;;;;;1.35;1.35;;;;;;;26.44;33.83;96271.88;5023811;28;20499;-59
2023/07/27 11:35:27;;;;;;;1.38;1.38;;;;;;;26.51;33.89;96260.09;5022106;28;20049;-59
2023/07/27 11:37:54;;;;;;;1.52;1.52;;;;;;;26.58;34.29;96260.47;5022118;28;20108;-58
2023/07/27 11:40:21;;;;;;;1.50;1.50;;;;;;;26.26;33.60;96209.63;5023359;28;20136;-62
2023/07/27 11:42:48;;;;;;;1.50;1.50;;;;;;;26.33;34.03;96234.78;5039672;28;20055;-62